createdAt,value
2019-03-15T00:00:43.821Z,963.91
2019-03-15T00:02:47.975Z,963.94
2019-03-15T00:03:48.217Z,963.92
2019-03-15T00:05:52.381Z,964.00
2019-03-15T00:06:52.621Z,964.00
2019-03-15T00:08:45.701Z,964.06
2019-03-15T00:09:45.936Z,964.06
2019-03-15T00:11:50.112Z,964.15
2019-03-15T00:12:50.350Z,964.11
2019-03-15T00:14:54.611Z,964.14
2019-03-15T00:15:54.802Z,964.07
2019-03-15T00:17:58.907Z,964.02
2019-03-15T00:18:59.144Z,964.09
2019-03-15T00:21:03.317Z,964.12
2019-03-15T00:22:03.550Z,964.05
2019-03-15T00:24:07.701Z,964.14
2019-03-15T00:25:07.934Z,964.15
2019-03-15T00:27:12.108Z,964.17
2019-03-15T00:28:12.348Z,964.26
2019-03-15T00:30:16.521Z,964.20
2019-03-15T00:31:16.758Z,964.26
2019-03-15T00:33:20.915Z,964.29
2019-03-15T00:34:21.154Z,964.32
2019-03-15T00:36:25.401Z,964.18
2019-03-15T00:37:25.568Z,964.24
2019-03-15T00:39:18.657Z,964.35
2019-03-15T00:40:18.884Z,964.35
2019-03-15T00:42:23.060Z,964.43
2019-03-15T00:43:23.300Z,964.43
2019-03-15T00:45:27.469Z,964.48
2019-03-15T00:46:27.708Z,964.46
2019-03-15T00:48:31.862Z,964.54
2019-03-15T00:49:32.105Z,964.55
2019-03-15T00:51:37.280Z,964.60
2019-03-15T00:52:37.518Z,964.64
2019-03-15T00:54:41.672Z,964.59
2019-03-15T00:55:41.910Z,964.61
2019-03-15T00:57:46.081Z,964.58
2019-03-15T00:58:46.327Z,964.57
2019-03-15T01:00:50.498Z,964.64
2019-03-15T01:01:50.743Z,964.80
2019-03-15T01:03:54.888Z,964.64
2019-03-15T01:04:55.177Z,964.67
2019-03-15T01:06:59.299Z,964.55
2019-03-15T01:07:59.541Z,964.47
2019-03-15T01:10:03.699Z,964.70
2019-03-15T01:11:03.929Z,964.69
2019-03-15T01:13:08.098Z,964.71
2019-03-15T01:14:08.334Z,964.69
2019-03-15T01:16:12.512Z,964.66
2019-03-15T01:17:12.749Z,964.65
2019-03-15T01:19:05.828Z,964.63
2019-03-15T01:20:06.067Z,964.66
2019-03-15T01:22:10.241Z,964.62
2019-03-15T01:23:10.478Z,964.65
2019-03-15T01:25:14.630Z,964.66
2019-03-15T01:26:14.871Z,964.72
2019-03-15T01:28:19.047Z,964.69
2019-03-15T01:29:19.292Z,964.72
2019-03-15T01:31:23.465Z,964.65
2019-03-15T01:32:23.700Z,964.69
2019-03-15T01:34:27.855Z,964.75
2019-03-15T01:35:28.089Z,964.66
2019-03-15T01:37:32.263Z,964.77
2019-03-15T01:38:32.503Z,964.71
2019-03-15T01:40:36.657Z,964.88
2019-03-15T01:41:36.889Z,964.83
2019-03-15T01:43:41.062Z,964.82
2019-03-15T01:44:41.303Z,964.82
2019-03-15T01:46:45.478Z,964.86
2019-03-15T01:47:45.708Z,964.85
2019-03-15T01:49:49.857Z,964.82
2019-03-15T01:50:50.396Z,964.87
2019-03-15T01:52:54.266Z,964.81
2019-03-15T01:53:54.545Z,964.85
2019-03-15T01:55:58.653Z,964.73
2019-03-15T01:56:58.892Z,964.91
2019-03-15T01:58:51.992Z,964.93
2019-03-15T01:59:52.229Z,964.86
2019-03-15T02:01:56.853Z,964.72
2019-03-15T02:02:56.617Z,964.66
2019-03-15T02:05:00.788Z,964.76
2019-03-15T02:06:01.024Z,964.71
2019-03-15T02:08:05.203Z,964.82
2019-03-15T02:09:05.434Z,964.75
2019-03-15T02:11:09.583Z,964.78
2019-03-15T02:12:09.823Z,964.76
2019-03-15T02:14:14.008Z,964.69
2019-03-15T02:15:14.234Z,964.63
2019-03-15T02:17:18.422Z,964.67
2019-03-15T02:18:18.790Z,964.62
2019-03-15T02:20:22.812Z,964.72
2019-03-15T02:21:23.048Z,964.79
2019-03-15T02:23:27.220Z,964.86
2019-03-15T02:24:27.456Z,964.87
2019-03-15T02:26:31.694Z,964.92
2019-03-15T02:27:31.841Z,964.96
2019-03-15T02:29:24.945Z,965.04
2019-03-15T02:30:25.184Z,964.85
2019-03-15T02:32:29.341Z,964.93
2019-03-15T02:33:29.569Z,964.88
2019-03-15T02:35:33.743Z,964.78
2019-03-15T02:36:33.975Z,964.85
2019-03-15T02:38:38.148Z,964.84
2019-03-15T02:39:38.388Z,964.83
2019-03-15T02:41:42.570Z,964.88
2019-03-15T02:42:42.772Z,964.76
2019-03-15T02:44:46.952Z,964.77
2019-03-15T02:45:47.180Z,964.73
2019-03-15T02:47:51.324Z,964.85
2019-03-15T02:48:51.563Z,964.77
2019-03-15T02:50:56.288Z,964.81
2019-03-15T02:51:55.989Z,964.82
2019-03-15T02:54:00.861Z,964.92
2019-03-15T02:55:00.440Z,964.87
2019-03-15T02:57:04.579Z,964.84
2019-03-15T02:58:04.763Z,964.84
2019-03-15T03:00:08.937Z,964.94
2019-03-15T03:01:09.184Z,965.07
2019-03-15T03:03:13.345Z,964.99
2019-03-15T03:04:14.273Z,965.05
2019-03-15T03:06:20.436Z,965.08
2019-03-15T03:07:18.151Z,965.13
2019-03-15T03:09:11.257Z,965.10
2019-03-15T03:10:11.488Z,964.87
2019-03-15T03:12:16.769Z,965.07
2019-03-15T03:13:15.876Z,964.96
2019-03-15T03:15:20.053Z,965.20
2019-03-15T03:16:20.288Z,965.09
2019-03-15T03:18:24.470Z,965.04
2019-03-15T03:19:24.704Z,965.04
2019-03-15T03:21:28.858Z,964.95
2019-03-15T03:22:29.094Z,964.96
2019-03-15T03:24:33.265Z,965.12
2019-03-15T03:25:33.499Z,965.13
2019-03-15T03:27:37.651Z,965.24
2019-03-15T03:28:37.886Z,965.01
2019-03-15T03:30:42.104Z,965.08
2019-03-15T03:31:44.289Z,965.08
2019-03-15T03:33:46.469Z,965.16
2019-03-15T03:34:46.707Z,965.16
2019-03-15T03:36:52.307Z,965.13
2019-03-15T03:37:51.098Z,965.15
2019-03-15T03:39:55.272Z,965.28
2019-03-15T03:40:56.389Z,965.12
2019-03-15T03:42:59.653Z,964.98
2019-03-15T03:43:59.895Z,965.26
2019-03-15T03:46:04.069Z,965.15
2019-03-15T03:47:04.304Z,965.20
2019-03-15T03:48:57.385Z,965.20
2019-03-15T03:49:57.623Z,965.09
2019-03-15T03:52:02.672Z,965.18
2019-03-15T03:53:02.035Z,965.23
2019-03-15T03:55:06.212Z,965.25
2019-03-15T03:56:06.481Z,965.22
2019-03-15T03:58:10.605Z,965.06
2019-03-15T03:59:10.846Z,965.31
2019-03-15T04:01:15.015Z,965.10
2019-03-15T04:02:15.250Z,965.34
2019-03-15T04:04:19.423Z,965.33
2019-03-15T04:05:19.679Z,965.41
2019-03-15T04:07:23.816Z,965.26
2019-03-15T04:08:24.120Z,965.45
2019-03-15T04:10:28.228Z,965.34
2019-03-15T04:11:28.466Z,965.37
2019-03-15T04:13:32.616Z,965.35
2019-03-15T04:14:32.859Z,965.27
2019-03-15T04:16:37.028Z,965.33
2019-03-15T04:17:37.265Z,965.28
2019-03-15T04:19:41.453Z,965.21
2019-03-15T04:20:42.454Z,965.29
2019-03-15T04:22:45.833Z,965.39
2019-03-15T04:23:46.070Z,965.28
2019-03-15T04:25:50.253Z,965.22
2019-03-15T04:26:50.475Z,965.28
2019-03-15T04:28:43.552Z,965.29
2019-03-15T04:29:43.789Z,965.29
2019-03-15T04:31:47.960Z,965.24
2019-03-15T04:32:48.196Z,965.30
2019-03-15T04:34:52.372Z,965.40
2019-03-15T04:35:52.615Z,965.46
2019-03-15T04:37:56.755Z,965.45
2019-03-15T04:38:56.995Z,965.41
2019-03-15T04:41:01.168Z,965.36
2019-03-15T04:42:01.394Z,965.40
2019-03-15T04:44:05.563Z,965.30
2019-03-15T04:45:05.796Z,965.33
2019-03-15T04:47:10.071Z,965.40
2019-03-15T04:48:10.207Z,965.41
2019-03-15T04:50:14.385Z,965.39
2019-03-15T04:51:14.624Z,965.32
2019-03-15T04:53:18.766Z,965.26
2019-03-15T04:54:19.011Z,965.32
2019-03-15T04:56:23.182Z,965.53
2019-03-15T04:57:23.420Z,965.42
2019-03-15T04:59:16.495Z,965.51
2019-03-15T05:00:16.733Z,965.43
2019-03-15T05:02:20.911Z,965.44
2019-03-15T05:03:21.132Z,965.47
2019-03-15T05:05:25.301Z,965.43
2019-03-15T05:06:25.541Z,965.48
2019-03-15T05:08:29.694Z,965.42
2019-03-15T05:09:29.929Z,965.45
2019-03-15T05:11:34.106Z,965.38
2019-03-15T05:12:34.342Z,965.46
2019-03-15T05:14:38.494Z,965.41
2019-03-15T05:15:38.732Z,965.33
2019-03-15T05:17:42.900Z,965.20
2019-03-15T05:18:43.142Z,965.25
2019-03-15T05:20:47.313Z,965.23
2019-03-15T05:21:47.548Z,965.22
2019-03-15T05:23:51.699Z,965.16
2019-03-15T05:24:51.934Z,965.28
2019-03-15T05:26:56.107Z,965.16
2019-03-15T05:27:56.348Z,965.23
2019-03-15T05:30:00.626Z,965.21
2019-03-15T05:31:00.732Z,965.27
2019-03-15T05:33:04.906Z,965.42
2019-03-15T05:34:05.132Z,965.32
2019-03-15T05:36:09.316Z,965.39
2019-03-15T05:37:09.554Z,965.55
2019-03-15T05:39:02.657Z,965.57
2019-03-15T05:40:02.899Z,965.52
2019-03-15T05:42:07.043Z,965.37
2019-03-15T05:43:07.286Z,965.60
2019-03-15T05:45:11.458Z,965.64
2019-03-15T05:46:11.693Z,965.69
2019-03-15T05:48:15.870Z,965.71
2019-03-15T05:49:16.097Z,965.69
2019-03-15T05:51:20.265Z,965.77
2019-03-15T05:52:20.483Z,965.76
2019-03-15T05:54:25.670Z,965.64
2019-03-15T05:55:25.907Z,965.75
2019-03-15T05:57:30.070Z,965.74
2019-03-15T05:58:30.293Z,965.78
2019-03-15T06:00:34.470Z,965.75
2019-03-15T06:01:34.745Z,965.70
2019-03-15T06:03:48.668Z,965.66
2019-03-15T06:04:39.124Z,965.70
2019-03-15T06:06:43.294Z,965.72
2019-03-15T06:07:43.532Z,965.63
2019-03-15T06:09:47.678Z,965.70
2019-03-15T06:10:47.920Z,965.65
2019-03-15T06:12:52.119Z,965.74
2019-03-15T06:13:52.315Z,965.78
2019-03-15T06:15:45.688Z,965.67
2019-03-15T06:16:45.896Z,965.74
2019-03-15T06:18:38.974Z,965.73
2019-03-15T06:19:39.204Z,965.69
2019-03-15T06:21:44.399Z,965.59
2019-03-15T06:22:44.627Z,965.58
2019-03-15T06:24:48.756Z,965.62
2019-03-15T06:25:48.986Z,965.62
2019-03-15T06:27:54.249Z,965.57
2019-03-15T06:28:54.392Z,965.59
2019-03-15T06:30:58.572Z,965.61
2019-03-15T06:31:58.816Z,965.50
2019-03-15T06:34:02.927Z,965.58
2019-03-15T06:35:03.160Z,965.56
2019-03-15T06:37:07.329Z,965.58
2019-03-15T06:38:07.568Z,965.66
2019-03-15T06:40:13.547Z,965.52
2019-03-15T06:41:14.351Z,965.52
2019-03-15T06:43:16.106Z,965.39
2019-03-15T06:44:16.347Z,965.45
2019-03-15T06:46:20.530Z,965.40
2019-03-15T06:47:20.794Z,965.40
2019-03-15T06:49:16.548Z,965.22
2019-03-15T06:50:15.101Z,965.20
2019-03-15T06:52:19.265Z,965.17
2019-03-15T06:53:19.483Z,965.17
2019-03-15T06:55:23.642Z,965.14
2019-03-15T06:56:23.883Z,965.06
2019-03-15T06:58:28.034Z,965.00
2019-03-15T06:59:28.264Z,965.22
2019-03-15T07:01:33.469Z,965.10
2019-03-15T07:02:33.705Z,965.12
2019-03-15T07:04:38.664Z,965.20
2019-03-15T07:05:38.881Z,965.15
2019-03-15T07:07:43.156Z,965.31
2019-03-15T07:08:43.337Z,965.15
2019-03-15T07:10:47.490Z,965.20
2019-03-15T07:11:47.724Z,964.93
2019-03-15T07:13:53.122Z,965.09
2019-03-15T07:14:53.350Z,965.18
2019-03-15T07:16:59.381Z,965.09
2019-03-15T07:17:59.660Z,965.08
2019-03-15T07:20:03.982Z,965.05
2019-03-15T07:21:04.207Z,965.08
2019-03-15T07:23:08.374Z,965.02
2019-03-15T07:24:08.611Z,965.08
2019-03-15T07:26:12.757Z,964.98
2019-03-15T07:27:13.605Z,965.06
2019-03-15T07:29:07.133Z,965.09
2019-03-15T07:30:07.327Z,965.07
2019-03-15T07:32:12.493Z,965.09
2019-03-15T07:33:12.727Z,964.89
2019-03-15T07:35:17.003Z,965.10
2019-03-15T07:36:17.117Z,964.98
2019-03-15T07:38:22.318Z,964.98
2019-03-15T07:39:22.532Z,964.90
2019-03-15T07:41:28.403Z,964.99
2019-03-15T07:42:28.629Z,965.02
2019-03-15T07:44:32.789Z,964.96
2019-03-15T07:45:33.024Z,964.96
2019-03-15T07:47:37.244Z,964.92
2019-03-15T07:48:37.627Z,964.98
2019-03-15T07:50:41.580Z,965.01
2019-03-15T07:51:41.770Z,965.09
2019-03-15T07:53:45.941Z,964.93
2019-03-15T07:54:46.172Z,964.87
2019-03-15T07:56:50.322Z,964.93
2019-03-15T07:57:50.559Z,964.91
2019-03-15T07:59:55.742Z,964.95
2019-03-15T08:00:55.979Z,964.98
2019-03-15T08:03:00.161Z,965.00
2019-03-15T08:04:00.848Z,964.98
2019-03-15T08:06:04.733Z,964.91
2019-03-15T08:07:04.760Z,964.92
2019-03-15T08:08:57.845Z,964.92
2019-03-15T08:09:58.077Z,964.91
2019-03-15T08:12:02.227Z,964.91
2019-03-15T08:13:02.446Z,964.99
2019-03-15T08:15:06.791Z,964.83
2019-03-15T08:16:07.039Z,964.81
2019-03-15T08:18:11.194Z,964.69
2019-03-15T08:19:11.434Z,964.83
2019-03-15T08:21:15.587Z,964.88
2019-03-15T08:22:15.809Z,964.76
2019-03-15T08:24:19.989Z,964.73
2019-03-15T08:25:20.231Z,964.74
2019-03-15T08:27:24.426Z,964.78
2019-03-15T08:28:24.645Z,964.78
2019-03-15T08:30:28.810Z,964.80
2019-03-15T08:31:29.046Z,964.72
2019-03-15T08:33:33.212Z,964.69
2019-03-15T08:34:33.461Z,964.76
2019-03-15T08:36:37.605Z,964.87
2019-03-15T08:37:37.816Z,964.72
2019-03-15T08:39:42.112Z,964.66
2019-03-15T08:40:42.345Z,964.68
2019-03-15T08:42:46.514Z,964.75
2019-03-15T08:43:46.813Z,964.90
2019-03-15T08:45:50.894Z,964.95
2019-03-15T08:46:51.149Z,964.64
2019-03-15T08:48:44.256Z,964.53
2019-03-15T08:49:44.470Z,964.69
2019-03-15T08:51:48.642Z,964.70
2019-03-15T08:52:48.863Z,964.69
2019-03-15T08:55:04.597Z,964.67
2019-03-15T08:55:53.263Z,964.72
2019-03-15T08:57:57.399Z,964.64
2019-03-15T08:58:58.142Z,964.53
2019-03-15T09:01:01.761Z,964.59
2019-03-15T09:02:02.014Z,964.68
2019-03-15T09:04:06.150Z,964.73
2019-03-15T09:05:06.407Z,964.77
2019-03-15T09:07:11.066Z,964.79
2019-03-15T09:11:16.639Z,964.70
2019-03-15T09:14:21.523Z,964.62
